AirNav   Textron
 
 1366 users online  

7F5 Canton-Hackney Airport
Canton, Texas, USA

GOING TO CANTON?


FAA INFORMATION EFFECTIVE 09 NOVEMBER 2017

Location

FAA Identifier: 7F5
Lat/Long: 32-35-10.4820N / 095-51-45.8770W
32-35.174700N / 095-51.764617W
32.5862450 / -95.8627436
(estimated)
Elevation: 500 ft. / 152 m (estimated)
Variation: 06E (1985)
From city: 2 miles N of CANTON, TX
Time zone: UTC -6 (UTC -5 during Daylight Saving Time)
Zip code: 75103

Airport Operations

Airport use: Open to the public
Activation date: 06/1968
Control tower: no
ARTCC: FORT WORTH CENTER
FSS: FORT WORTH FLIGHT SERVICE STATION
NOTAMs facility: FTW (NOTAM-D service available)
Attendance: UNATNDD
Wind indicator: yes
Segmented circle: no
Lights: SS-SR

Airport Communications

CTAF: 122.9

Nearby radio navigation aids

VOR radial/distance  VOR name  Freq  Var
TYRr295/27.0TYLER VOR/DME114.2006E
CQYr031/30.0CEDAR CREEK VORTAC114.8006E
UIMr227/30.6QUITMAN VOR/DME114.0008E
FZTr325/35.0FRANKSTON VOR/DME111.4006E

 
NDB name  Hdg/Dist  Freq  Var  ID
TRAVIS112/22.126006EAVZ .- ...- --..
ATHENS350/25.726906EAHX .- .... -..-
CROSSROADS001/31.721508ECSZ -.-. ... --..
CADDO MILLS138/33.531606EMII -- .. ..
JECCA092/34.238806EJUG .--- ..- --.
MESQUITE109/36.224803EPQF .--. --.- ..-.
AMBASSADOR263/37.940407EABG .- -... --.

Airport Services

Parking: tiedowns
Airframe service: NONE
Powerplant service: NONE
Bottled oxygen: NONE
Bulk oxygen: NONE

Runway Information

Runway 18/36

Dimensions: 3750 x 50 ft. / 1143 x 15 m
Surface: asphalt, in fair condition
Weight bearing capacity: 
Single wheel: 5.5
Runway edge lights: non-standard
NSTD LIRL; ONLY MIDDLE 1,200 FT OF RWY LGTD ON WEST SIDE ONLY
Runway edge markings: MARKINGS FADED.
NSTD SMALL RY NRS; ONLY 35 FT HIGH. NO DSPLCD THLD MARKINGS.
RUNWAY 18  RUNWAY 36
Gradient: 0.6%0.6%
Traffic pattern: leftleft
Displaced threshold: 103 ft.70 ft.
Markings: NSTD, in good conditionNSTD, in poor condition
Obstructions: none
+40 FT TREES AT THLD 75 FT R CNTRLN TO 100 FT FM THLD; 5 FT FENCE ACROSS APCH 50 FT FM THLD
15 ft. pline, marked, 200 ft. from runway
+15 FT OBSTN LGT POLES 176 FT FM THLD 65 FT R OF CNTRLN; ROAD 80 FT RIGHT OF CNTRLN AT THLD; +35 FT TREE AT THLD 100 FT L OF CNTRLN.

Airport Ownership and Management from official FAA records

Ownership: Publicly-owned
Owner: CITY OF CANTON
PO BOX 245
CANTON, TX 75103
Phone (903) 567-1841
Manager: WALT LEHMANN
PO BOX 245
CANTON, TX 75103
Phone (903) 288-0392
EMERGENCY PHONE: 903-567-4991.

Airport Operational Statistics

Aircraft operations: avg 50/month *
67% transient general aviation
33% local general aviation
* for 12-month period ending 11 May 2016

Additional Remarks

ARPT CLSD TO ACFT OVER 10,000 LBS.
RY 18/36 +2 FT POSTS AND CABLE 75 FT FM RY CNTRLN WEST SIDE OF RY.
RY 18/36 NO LINE OF SIGHT BTN THLDS.

Instrument Procedures

There are no published instrument procedures at 7F5.

Some nearby airports with instrument procedures:

3F9 - Mineola Airport-Wisener Field (19 nm E)
KJDD - Wood County Airport (21 nm NE)
KTRL - Terrell Municipal Airport (22 nm W)
F44 - Athens Municipal Airport (25 nm S)
KTYR - Tyler Pounds Regional Airport (27 nm SE)
 
Loc | Ops | Rwys | IFR | FBO | Links
Com | Nav | Svcs | Stats | Notes


 
Area around 7F5 (Canton-Hackney Airport)
 
Road maps at: MapQuest Bing Google
 
Aerial photo
WARNING: Photo may not be current or correct
Aerial photo of 7F5 (Canton-Hackney Airport)
Photo contributed by J. Herz

Do you have a better or more recent aerial photo of Canton-Hackney Airport that you would like to share? If so, please send us your photo.

 
Sectional chart

 
Airport distance calculator
Flying to Canton-Hackney Airport? Find the distance to fly.

From to 7F5

Sunrise and sunset
Times for 22-Nov-2017
 Local
(UTC-6)
 Zulu
(UTC)
Morning civil twilight06:3412:34
Sunrise07:0113:01
Sunset17:1923:19
Evening civil twilight17:4523:45

Current date and time
Zulu (UTC)  22-Nov-2017 16:29:06
Local (UTC-6)  22-Nov-2017 10:29:06
 
METAR
KJDD 
21nm NE 
221615Z AUTO 36005KT 10SM CLR 10/M03 A3035 RMK AO2
KTRL 
22nm W 
221553Z AUTO 36009KT 10SM CLR 08/M06 A3039 RMK AO2 SLP288 T00781061
KF44 
25nm S 
221615Z AUTO 35008KT 10SM CLR 08/M04 A3034 RMK AO2
KTYR 
27nm SE 
221553Z 03008KT 10SM CLR 10/M03 A3033 RMK AO2 SLP270 T01001028
KGVT 
31nm N 
221610Z AUTO 32007KT 10SM CLR 08/M03 A3037 RMK AO2
KHQZ 
35nm W 
221550Z 33009G17KT 10SM CLR 07/M06 A3039
KF46 
36nm NW 
221615Z AUTO 35006KT 10SM CLR 07/M04 A3038 RMK AO2 T00661038
KSLR 
37nm N 
221615Z AUTO 34006KT 10SM CLR 08/M03 A3038 RMK AO2 T00761031
TAF
KTYR 
27nm SE 
221121Z 2212/2312 36010KT P6SM SKC FM221500 03010KT P6SM SKC FM221800 02007KT P6SM SCT250 FM230000 VRB02KT P6SM SCT250 FM230600 00000KT P6SM FEW250
NOTAMs
Click for the latest NOTAMs
NOTAMs are issued by the DoD/FAA and will open in a separate window not controlled by AirNav.

 

 
 

Would you like to see your business listed on this page?

 If your business provides an interesting product or service to pilots, flight crews, aircraft, or users of the Canton-Hackney Airport, you should consider listing it here.  To start the listing process, click on the button below
 
Add a business
 

Other Pages about Canton-Hackney Airport

Update a link
 
Copyright © AirNav, LLC. All rights reserved. Privacy Policy  Contact